Time;durP1;ratioP1;P1;durP2;ratioP2;P2;SDS_P1;SDS_P2;PMS_P1;PMS_P2;Temp;Humidity;BMP_temperature;BMP_pressure;BME280_temperature;BME280_humidity;BME280_pressure;Samples;Min_cycle;Max_cycle;Signal;HPM_P1;HPM_P2
2021/01/15 00:00:20;;;;;;;9.30;7.20;;;0.40;99.90;;;;;;5053295;28;20184;-65
2021/01/15 00:02:45;;;;;;;9.13;7.67;;;0.40;99.90;;;;;;5050900;28;20192;-66
2021/01/15 00:05:12;;;;;;;8.20;7.40;;;0.40;99.90;;;;;;5056394;28;20464;-66
2021/01/15 00:07:37;;;;;;;10.87;7.50;;;0.40;99.90;;;;;;5055864;28;20657;-65
2021/01/15 00:10:03;;;;;;;9.20;7.30;;;0.40;99.90;;;;;;5056659;28;20572;-66
2021/01/15 00:12:28;;;;;;;7.97;6.37;;;0.40;99.90;;;;;;5056269;28;20197;-65
2021/01/15 00:14:54;;;;;;;10.50;7.90;;;0.40;99.90;;;;;;5077474;28;20418;-66
2021/01/15 00:17:19;;;;;;;8.23;7.07;;;0.40;99.90;;;;;;5057861;28;20255;-66
2021/01/15 00:19:45;;;;;;;8.30;7.50;;;0.50;99.90;;;;;;5053701;28;20172;-66
2021/01/15 00:22:11;;;;;;;9.60;8.03;;;0.40;99.90;;;;;;5058279;28;22163;-65
2021/01/15 00:24:36;;;;;;;9.87;8.70;;;0.50;99.90;;;;;;5065238;28;20171;-65
2021/01/15 00:27:02;;;;;;;13.00;9.13;;;0.50;99.90;;;;;;5056247;28;20435;-66
2021/01/15 00:29:28;;;;;;;11.40;8.87;;;0.60;99.90;;;;;;5056568;28;20220;-65
2021/01/15 00:31:53;;;;;;;11.23;9.00;;;0.70;99.90;;;;;;5056229;28;20630;-66
2021/01/15 00:34:20;;;;;;;12.40;8.80;;;0.80;99.90;;;;;;5058045;28;20359;-65
2021/01/15 00:36:46;;;;;;;12.90;8.80;;;0.80;99.90;;;;;;5065632;28;20250;-65
2021/01/15 00:39:16;;;;;;;11.97;9.50;;;0.90;99.90;;;;;;5061345;28;20537;-65
2021/01/15 00:41:44;;;;;;;11.27;8.83;;;0.90;99.90;;;;;;5058107;28;20541;-65
2021/01/15 00:44:10;;;;;;;10.63;8.00;;;1.00;99.90;;;;;;5065816;28;20427;-66
2021/01/15 00:46:43;;;;;;;10.23;8.37;;;1.00;99.90;;;;;;5054582;28;20969;-65
2021/01/15 00:49:11;;;;;;;9.43;8.17;;;1.10;99.90;;;;;;5061040;28;20419;-66
2021/01/15 00:51:36;;;;;;;10.23;8.23;;;1.20;99.90;;;;;;5061715;28;20425;-66
2021/01/15 00:54:03;;;;;;;9.90;8.50;;;1.20;99.90;;;;;;5058532;28;20434;-66
2021/01/15 00:56:29;;;;;;;10.60;8.70;;;1.30;99.90;;;;;;5054364;28;20180;-66
2021/01/15 00:58:54;;;;;;;13.60;8.80;;;1.30;99.90;;;;;;5056969;28;20423;-66
2021/01/15 01:01:23;;;;;;;9.80;8.80;;;1.30;99.90;;;;;;5055828;28;20175;-65
2021/01/15 01:03:49;;;;;;;10.07;7.40;;;1.30;99.90;;;;;;5059500;28;20637;-65
2021/01/15 01:06:20;;;;;;;8.43;7.33;;;1.40;99.90;;;;;;5058215;28;20519;-66
2021/01/15 01:08:47;;;;;;;10.13;7.77;;;1.40;99.90;;;;;;5062745;28;20951;-66
2021/01/15 01:11:18;;;;;;;8.87;8.00;;;1.40;99.90;;;;;;5061214;28;20930;-66
2021/01/15 01:13:45;;;;;;;9.60;8.60;;;1.40;99.90;;;;;;5059619;28;20461;-66
2021/01/15 01:16:14;;;;;;;10.37;9.27;;;1.40;99.90;;;;;;5054824;28;20430;-65
2021/01/15 01:18:39;;;;;;;8.50;7.33;;;1.50;99.90;;;;;;5061637;28;20881;-66
2021/01/15 01:21:05;;;;;;;9.47;8.40;;;1.50;99.90;;;;;;5055788;28;20418;-65
2021/01/15 01:23:30;;;;;;;11.33;7.77;;;1.50;99.90;;;;;;5058739;28;20606;-65
2021/01/15 01:25:56;;;;;;;9.67;8.67;;;1.60;99.90;;;;;;5054050;28;20198;-65
2021/01/15 01:28:21;;;;;;;11.17;9.50;;;1.60;99.90;;;;;;5060537;28;20645;-66
2021/01/15 01:30:47;;;;;;;11.97;10.27;;;1.70;99.90;;;;;;5055275;28;20211;-65
2021/01/15 01:33:13;;;;;;;10.40;9.20;;;1.70;99.90;;;;;;5068239;28;20567;-66
2021/01/15 01:35:38;;;;;;;12.87;11.20;;;1.80;99.90;;;;;;5058482;28;20229;-66
2021/01/15 01:38:04;;;;;;;15.10;13.40;;;1.80;99.90;;;;;;5058916;28;20191;-65
2021/01/15 01:40:29;;;;;;;15.53;13.10;;;1.90;99.90;;;;;;5055493;28;20206;-66
2021/01/15 01:42:55;;;;;;;16.47;14.10;;;1.90;99.90;;;;;;5068191;28;20172;-66
2021/01/15 01:45:20;;;;;;;18.70;14.47;;;1.90;99.90;;;;;;5056946;28;20789;-66
2021/01/15 01:47:46;;;;;;;16.03;13.00;;;2.00;99.90;;;;;;5057313;28;20189;-65
2021/01/15 01:50:12;;;;;;;16.90;15.10;;;2.00;99.90;;;;;;5061938;28;20191;-66
2021/01/15 01:52:38;;;;;;;17.03;14.80;;;2.10;99.90;;;;;;5058055;28;20681;-66
2021/01/15 01:55:04;;;;;;;16.90;14.20;;;2.10;99.90;;;;;;5060639;28;20178;-66
2021/01/15 01:57:31;;;;;;;15.70;14.00;;;2.20;99.90;;;;;;5054115;28;20828;-65
2021/01/15 01:59:56;;;;;;;19.60;14.77;;;2.20;99.90;;;;;;5055008;28;20427;-66
2021/01/15 02:02:22;;;;;;;18.37;14.50;;;2.20;99.90;;;;;;5055564;28;20526;-65
2021/01/15 02:04:48;;;;;;;15.03;13.43;;;2.20;99.90;;;;;;5058389;28;20172;-66
2021/01/15 02:07:14;;;;;;;18.27;15.47;;;2.20;99.90;;;;;;5056900;28;20172;-66
2021/01/15 02:10:03;;;;;;;15.40;13.40;;;2.20;99.90;;;;;;5061622;28;20433;-66
2021/01/15 02:12:45;;;;;;;14.33;11.80;;;2.20;99.90;;;;;;5054901;28;21285;-66
2021/01/15 02:15:31;;;;;;;16.97;12.77;;;2.20;99.90;;;;;;5061449;28;20944;-66
2021/01/15 02:18:24;;;;;;;17.43;13.33;;;2.30;99.90;;;;;;5064660;28;20988;-65
2021/01/15 02:21:11;;;;;;;15.20;12.57;;;2.20;99.90;;;;;;5056171;28;20430;-66
2021/01/15 02:23:37;;;;;;;15.40;12.80;;;2.20;99.90;;;;;;5054651;28;20430;-65
2021/01/15 02:26:05;;;;;;;14.53;12.27;;;2.30;99.90;;;;;;5052347;28;21373;-65
2021/01/15 02:29:09;;;;;;;14.30;11.97;;;2.30;99.90;;;;;;5053602;28;20522;-66
2021/01/15 02:32:13;;;;;;;13.33;10.00;;;2.30;99.90;;;;;;5052817;28;20484;-66
2021/01/15 02:35:22;;;;;;;13.63;10.97;;;2.20;99.90;;;;;;5055810;28;20980;-66
2021/01/15 02:38:04;;;;;;;13.43;11.43;;;2.30;99.90;;;;;;5050937;28;20426;-65
2021/01/15 02:40:56;;;;;;;14.60;9.80;;;2.20;99.90;;;;;;5053213;28;20476;-66
2021/01/15 02:43:24;;;;;;;11.43;9.70;;;2.30;99.90;;;;;;5053093;28;20489;-66
2021/01/15 02:45:50;;;;;;;12.73;10.33;;;2.20;99.90;;;;;;5053026;28;20429;-66
2021/01/15 02:48:19;;;;;;;13.00;10.33;;;2.20;99.90;;;;;;5059093;28;20434;-66
2021/01/15 02:50:46;;;;;;;12.80;10.97;;;2.20;99.90;;;;;;5052576;28;20434;-66
2021/01/15 02:53:15;;;;;;;11.33;10.23;;;2.20;99.90;;;;;;5054272;28;20978;-66
2021/01/15 02:55:40;;;;;;;12.67;9.13;;;2.20;99.90;;;;;;5053759;28;20441;-66
2021/01/15 02:58:06;;;;;;;12.63;10.07;;;2.20;99.90;;;;;;5052605;28;20920;-66
2021/01/15 03:00:31;;;;;;;9.93;8.47;;;2.20;99.90;;;;;;5054582;28;20211;-66
2021/01/15 03:03:15;;;;;;;11.83;10.70;;;2.20;99.90;;;;;;5054924;28;20506;-65
2021/01/15 03:05:55;;;;;;;13.20;8.67;;;2.20;99.90;;;;;;5058094;28;20175;-66
2021/01/15 03:08:22;;;;;;;9.67;8.67;;;2.30;99.90;;;;;;5058714;28;20432;-65
2021/01/15 03:10:51;;;;;;;13.07;10.40;;;2.20;99.90;;;;;;5061407;28;20933;-66
2021/01/15 03:13:17;;;;;;;9.60;8.63;;;2.30;99.90;;;;;;5056287;28;20888;-65
2021/01/15 03:15:46;;;;;;;11.00;8.67;;;2.30;99.90;;;;;;5061281;28;20426;-66
2021/01/15 03:18:13;;;;;;;12.23;9.80;;;2.30;99.90;;;;;;5059096;28;20887;-66
2021/01/15 03:20:39;;;;;;;10.07;8.90;;;2.30;99.90;;;;;;5068022;28;20775;-66
2021/01/15 03:23:05;;;;;;;10.47;9.37;;;2.30;99.90;;;;;;5056294;28;20971;-66
2021/01/15 03:25:31;;;;;;;12.07;9.60;;;2.30;99.90;;;;;;5052954;28;20526;-66
2021/01/15 03:27:57;;;;;;;11.00;9.70;;;2.30;99.90;;;;;;5050244;28;20180;-66
2021/01/15 03:30:24;;;;;;;11.57;10.37;;;2.30;99.90;;;;;;5068589;28;20194;-66
2021/01/15 03:32:52;;;;;;;10.80;9.30;;;2.30;99.90;;;;;;5052185;28;20591;-66
2021/01/15 03:35:24;;;;;;;11.10;9.77;;;2.30;99.90;;;;;;5056547;28;20435;-66
2021/01/15 03:38:05;;;;;;;12.43;9.13;;;2.30;99.90;;;;;;5055408;28;20421;-66
2021/01/15 03:40:38;;;;;;;11.17;9.47;;;2.30;99.90;;;;;;5049927;28;20476;-66
2021/01/15 03:43:14;;;;;;;11.30;10.20;;;2.30;99.90;;;;;;5054881;28;20461;-66
2021/01/15 03:45:42;;;;;;;10.23;9.20;;;2.30;99.90;;;;;;5059311;28;20434;-66
2021/01/15 03:48:08;;;;;;;13.33;11.40;;;2.30;99.90;;;;;;5059597;28;20435;-66
2021/01/15 03:50:34;;;;;;;11.70;9.90;;;2.30;99.90;;;;;;5052016;28;20777;-66
2021/01/15 03:53:00;;;;;;;12.20;10.10;;;2.30;99.90;;;;;;5055268;28;20962;-66
2021/01/15 03:55:25;;;;;;;10.33;9.10;;;2.30;99.90;;;;;;5051682;28;20487;-66
2021/01/15 03:57:51;;;;;;;11.20;9.63;;;2.30;99.90;;;;;;5053044;28;20180;-66
2021/01/15 04:00:17;;;;;;;14.30;10.80;;;2.30;99.90;;;;;;5054786;28;20179;-66
2021/01/15 04:02:42;;;;;;;11.30;9.50;;;2.30;99.90;;;;;;5052097;28;20306;-66
2021/01/15 04:05:13;;;;;;;12.23;10.47;;;2.30;99.90;;;;;;5051049;28;20426;-66
2021/01/15 04:07:39;;;;;;;12.30;10.97;;;2.40;99.90;;;;;;5051075;28;20752;-65
2021/01/15 04:10:08;;;;;;;17.40;11.77;;;2.30;99.90;;;;;;5053141;28;20516;-66
2021/01/15 04:12:33;;;;;;;11.83;9.87;;;2.30;99.90;;;;;;5055688;28;20679;-65
2021/01/15 04:14:59;;;;;;;12.53;11.23;;;2.30;99.90;;;;;;5052532;28;20553;-65
2021/01/15 04:17:24;;;;;;;11.57;10.10;;;2.30;99.90;;;;;;5053936;28;20611;-65
2021/01/15 04:19:50;;;;;;;12.90;11.20;;;2.30;99.90;;;;;;5055101;28;20191;-66
2021/01/15 04:22:15;;;;;;;12.07;10.77;;;2.30;99.90;;;;;;5054401;28;20602;-66
2021/01/15 04:24:41;;;;;;;12.27;10.63;;;2.30;99.90;;;;;;5054240;28;20199;-66
2021/01/15 04:27:07;;;;;;;13.07;11.77;;;2.30;99.90;;;;;;5054671;28;20267;-66
2021/01/15 04:29:32;;;;;;;12.30;11.00;;;2.30;99.90;;;;;;5052302;28;20271;-66
2021/01/15 04:31:58;;;;;;;17.00;13.30;;;2.30;99.90;;;;;;5051152;28;20278;-66
2021/01/15 04:34:23;;;;;;;19.47;13.03;;;2.30;99.90;;;;;;5051447;28;20169;-66
2021/01/15 04:36:49;;;;;;;14.90;12.23;;;2.30;99.90;;;;;;5065549;28;20177;-66
2021/01/15 04:39:14;;;;;;;14.03;12.40;;;2.30;99.90;;;;;;5051651;28;20556;-65
2021/01/15 04:41:45;;;;;;;17.40;13.60;;;2.30;99.90;;;;;;5055822;28;20245;-66
2021/01/15 04:44:11;;;;;;;18.60;14.37;;;2.30;99.90;;;;;;5056000;28;20207;-66
2021/01/15 04:46:41;;;;;;;15.80;13.00;;;2.30;99.90;;;;;;5051601;28;20450;-66
2021/01/15 04:49:09;;;;;;;14.73;13.23;;;2.30;99.90;;;;;;5058396;28;20177;-66
2021/01/15 04:51:37;;;;;;;18.80;15.67;;;2.30;99.90;;;;;;5052307;28;20522;-66
2021/01/15 04:54:11;;;;;;;18.53;13.97;;;2.20;99.90;;;;;;5055234;28;20464;-66
2021/01/15 04:56:50;;;;;;;17.47;14.43;;;2.20;99.90;;;;;;5061806;28;20456;-66
2021/01/15 04:59:18;;;;;;;17.00;14.13;;;2.20;99.90;;;;;;5054228;28;20418;-66
2021/01/15 05:01:45;;;;;;;17.20;14.70;;;2.20;99.90;;;;;;5060321;28;20926;-66
2021/01/15 05:04:12;;;;;;;19.47;15.97;;;2.30;99.90;;;;;;5055823;28;21006;-65
2021/01/15 05:06:51;;;;;;;18.00;14.60;;;2.30;99.90;;;;;;5063583;28;20426;-65
2021/01/15 05:09:19;;;;;;;17.57;15.00;;;2.30;99.90;;;;;;5064402;28;20422;-65
2021/01/15 05:11:45;;;;;;;23.93;15.90;;;2.30;99.90;;;;;;5057088;28;20428;-66
2021/01/15 05:14:15;;;;;;;22.03;17.70;;;2.30;99.90;;;;;;5056513;28;20437;-66
2021/01/15 05:16:44;;;;;;;20.57;17.93;;;2.30;99.90;;;;;;5057749;28;20969;-66
2021/01/15 05:19:12;;;;;;;25.03;17.37;;;2.30;99.90;;;;;;5058742;28;20536;-66
2021/01/15 05:21:39;;;;;;;22.43;17.97;;;2.30;99.90;;;;;;5053174;28;20975;-66
2021/01/15 05:24:06;;;;;;;22.07;17.50;;;2.20;99.90;;;;;;5057214;28;20439;-65
2021/01/15 05:26:37;;;;;;;22.37;18.00;;;2.30;99.90;;;;;;5056138;28;20434;-66
2021/01/15 05:29:07;;;;;;;21.70;17.73;;;2.20;99.90;;;;;;5055213;28;20440;-66
2021/01/15 05:31:57;;;;;;;24.27;19.73;;;2.20;99.90;;;;;;5058022;28;20800;-66
2021/01/15 05:34:27;;;;;;;21.83;18.80;;;2.20;99.90;;;;;;5055215;28;20885;-65
2021/01/15 05:36:54;;;;;;;23.27;20.77;;;2.20;99.90;;;;;;5054143;28;20832;-65
2021/01/15 05:39:22;;;;;;;28.53;21.20;;;2.30;99.90;;;;;;5057249;28;20770;-66
2021/01/15 05:41:58;;;;;;;26.57;22.70;;;2.30;99.90;;;;;;5061458;28;20502;-66
2021/01/15 05:44:26;;;;;;;26.73;21.70;;;2.30;99.90;;;;;;5052959;28;20441;-66
2021/01/15 05:46:52;;;;;;;27.90;21.20;;;2.20;99.90;;;;;;5055423;28;20453;-66
2021/01/15 05:49:18;;;;;;;28.70;22.27;;;2.20;99.90;;;;;;5053689;28;20805;-66
2021/01/15 05:51:43;;;;;;;31.20;22.70;;;2.20;99.90;;;;;;5054515;28;20485;-65
2021/01/15 05:54:10;;;;;;;29.97;23.63;;;2.20;99.90;;;;;;5062945;28;20180;-66
2021/01/15 05:56:37;;;;;;;31.90;23.13;;;2.20;99.90;;;;;;5053788;28;20180;-66
2021/01/15 05:59:14;;;;;;;31.43;24.33;;;2.20;99.90;;;;;;5059072;28;20437;-66
2021/01/15 06:01:47;;;;;;;26.83;23.10;;;2.20;99.90;;;;;;5063489;28;20463;-65
2021/01/15 06:04:15;;;;;;;29.33;24.03;;;2.20;99.90;;;;;;5055288;28;20464;-65
2021/01/15 06:06:41;;;;;;;29.90;23.60;;;2.20;99.90;;;;;;5053539;28;20522;-66
2021/01/15 06:09:08;;;;;;;25.30;21.43;;;2.20;99.90;;;;;;5053018;28;20552;-66
2021/01/15 06:11:39;;;;;;;30.33;21.73;;;2.20;99.90;;;;;;5054177;28;20517;-66
2021/01/15 06:14:18;;;;;;;30.60;24.37;;;2.20;99.90;;;;;;5056235;28;20943;-65
2021/01/15 06:16:44;;;;;;;29.07;22.20;;;2.20;99.90;;;;;;5055944;28;20466;-66
2021/01/15 06:19:09;;;;;;;30.10;23.40;;;2.20;99.90;;;;;;5060018;28;20935;-65
2021/01/15 06:21:35;;;;;;;30.37;25.17;;;2.20;99.90;;;;;;5054957;28;20422;-65
2021/01/15 06:24:06;;;;;;;28.67;23.40;;;2.20;99.90;;;;;;5061618;28;20180;-66
2021/01/15 06:26:38;;;;;;;27.80;21.67;;;2.20;99.90;;;;;;5056742;28;20427;-66
2021/01/15 06:29:09;;;;;;;30.20;23.97;;;2.20;99.90;;;;;;5059438;28;20427;-65
2021/01/15 06:31:46;;;;;;;30.53;23.80;;;2.30;99.90;;;;;;5054378;28;20458;-66
2021/01/15 06:34:13;;;;;;;32.97;23.60;;;2.30;99.90;;;;;;5053673;28;20902;-66
2021/01/15 06:37:06;;;;;;;31.20;24.93;;;2.30;99.90;;;;;;5053354;28;20427;-66
2021/01/15 06:39:31;;;;;;;29.23;24.67;;;2.30;99.90;;;;;;5055125;28;20562;-65
2021/01/15 06:42:03;;;;;;;28.27;23.50;;;2.30;99.90;;;;;;5052670;28;20445;-66
2021/01/15 06:44:29;;;;;;;27.20;24.03;;;2.40;99.90;;;;;;5053382;28;20187;-65
2021/01/15 06:46:56;;;;;;;30.50;24.40;;;2.40;99.90;;;;;;5065378;28;20426;-65
2021/01/15 06:49:30;;;;;;;35.30;25.80;;;2.40;99.90;;;;;;5053583;28;20523;-65
2021/01/15 06:51:59;;;;;;;32.90;25.87;;;2.40;99.90;;;;;;5051175;28;20945;-66
2021/01/15 06:54:35;;;;;;;30.97;24.20;;;2.40;99.90;;;;;;5061606;28;20441;-66
2021/01/15 06:57:11;;;;;;;34.67;27.23;;;2.40;99.90;;;;;;5054536;28;20429;-66
2021/01/15 06:59:38;;;;;;;34.53;26.53;;;2.40;99.90;;;;;;5051130;28;20423;-66
2021/01/15 07:02:12;;;;;;;35.10;26.40;;;2.30;99.90;;;;;;5055498;28;20433;-66
2021/01/15 07:04:57;;;;;;;35.57;28.20;;;2.30;99.90;;;;;;5055100;28;20488;-66
2021/01/15 07:07:28;;;;;;;30.53;25.80;;;2.30;99.90;;;;;;5054901;28;20426;-66
2021/01/15 07:09:54;;;;;;;32.40;26.03;;;2.30;99.90;;;;;;5057128;28;20818;-66
2021/01/15 07:12:22;;;;;;;34.97;27.57;;;2.30;99.90;;;;;;5055380;28;20502;-65
2021/01/15 07:14:56;;;;;;;34.70;27.20;;;2.30;99.90;;;;;;5051080;28;20189;-66
2021/01/15 07:17:43;;;;;;;36.70;27.87;;;2.30;99.90;;;;;;5058471;28;20930;-65
2021/01/15 07:20:13;;;;;;;36.90;29.20;;;2.30;99.90;;;;;;5053654;28;20429;-65
2021/01/15 07:22:46;;;;;;;40.43;29.00;;;2.30;99.90;;;;;;5054031;28;20496;-66
2021/01/15 07:25:12;;;;;;;38.90;30.90;;;2.30;99.90;;;;;;5057666;28;20989;-66
2021/01/15 07:27:39;;;;;;;36.80;28.23;;;2.30;99.90;;;;;;5052259;28;20461;-66
2021/01/15 07:30:26;;;;;;;40.00;28.30;;;2.30;99.90;;;;;;5058474;28;20907;-66
2021/01/15 07:32:53;;;;;;;38.40;30.07;;;2.30;99.90;;;;;;5066021;28;20464;-66
2021/01/15 07:35:21;;;;;;;37.67;29.17;;;2.30;99.90;;;;;;5053577;28;20447;-66
2021/01/15 07:37:47;;;;;;;40.20;28.70;;;2.30;99.90;;;;;;5053285;28;20484;-66
2021/01/15 07:40:18;;;;;;;41.77;30.63;;;2.30;99.90;;;;;;5055272;28;20454;-66
2021/01/15 07:42:52;;;;;;;39.03;31.33;;;2.30;99.90;;;;;;5052941;28;20521;-66
2021/01/15 07:45:25;;;;;;;41.87;31.97;;;2.30;99.90;;;;;;5054783;28;20425;-65
2021/01/15 07:47:51;;;;;;;39.80;29.37;;;2.30;99.90;;;;;;5053482;28;20432;-65
2021/01/15 07:50:47;;;;;;;39.60;29.70;;;2.20;99.90;;;;;;5053116;28;20507;-66
2021/01/15 07:53:13;;;;;;;43.40;31.10;;;2.20;99.90;;;;;;5036560;28;20477;-66
2021/01/15 07:55:43;;;;;;;40.77;31.03;;;2.20;99.90;;;;;;5052851;28;20433;-66
2021/01/15 07:58:08;;;;;;;41.30;30.40;;;2.20;99.90;;;;;;5052530;28;20453;-66
2021/01/15 08:00:34;;;;;;;43.10;30.97;;;2.20;99.90;;;;;;5054027;28;20422;-66
2021/01/15 08:03:01;;;;;;;36.67;28.47;;;2.30;99.90;;;;;;5060754;28;20194;-66
2021/01/15 08:05:27;;;;;;;44.03;28.43;;;2.20;99.90;;;;;;5052804;28;20457;-66
2021/01/15 08:08:07;;;;;;;42.17;29.67;;;2.20;99.90;;;;;;5053280;28;20475;-66
2021/01/15 08:10:44;;;;;;;40.10;29.80;;;2.20;99.90;;;;;;5057700;28;20177;-66
2021/01/15 08:13:23;;;;;;;37.00;27.13;;;2.20;99.90;;;;;;5052793;28;20457;-66
2021/01/15 08:15:50;;;;;;;39.17;28.63;;;2.30;99.90;;;;;;5052697;28;20419;-65
2021/01/15 08:18:16;;;;;;;34.67;25.43;;;2.20;99.90;;;;;;5057012;28;20419;-66
2021/01/15 08:20:45;;;;;;;36.23;26.27;;;2.20;99.90;;;;;;5052408;28;20415;-66
2021/01/15 08:23:22;;;;;;;39.80;27.50;;;2.20;99.90;;;;;;5056900;28;20426;-65
2021/01/15 08:26:14;;;;;;;41.83;29.67;;;2.20;99.90;;;;;;5053874;28;20418;-66
2021/01/15 08:28:40;;;;;;;39.10;28.20;;;2.20;99.90;;;;;;5054221;28;20426;-66
2021/01/15 08:31:06;;;;;;;34.83;25.70;;;2.20;99.90;;;;;;5058484;28;22502;-66
2021/01/15 08:33:33;;;;;;;38.53;27.63;;;2.30;99.90;;;;;;5054109;28;20548;-66
2021/01/15 08:36:03;;;;;;;40.90;26.83;;;2.30;99.90;;;;;;5056901;28;21327;-66
2021/01/15 08:38:31;;;;;;;37.20;28.83;;;2.30;99.90;;;;;;5056075;28;20505;-65
2021/01/15 08:40:56;;;;;;;39.63;28.13;;;2.30;99.90;;;;;;5055637;28;20426;-66
2021/01/15 08:43:24;;;;;;;38.77;28.63;;;2.30;99.90;;;;;;5054165;28;20448;-66
2021/01/15 08:45:50;;;;;;;35.47;25.77;;;2.30;99.90;;;;;;5055498;28;20245;-66
2021/01/15 08:48:16;;;;;;;32.97;24.80;;;2.40;99.90;;;;;;5055537;28;20803;-66
2021/01/15 08:50:42;;;;;;;39.13;27.03;;;2.40;99.90;;;;;;5055965;28;20438;-66
2021/01/15 08:53:10;;;;;;;40.60;27.87;;;2.40;99.90;;;;;;5061863;28;20469;-66
2021/01/15 08:55:37;;;;;;;41.23;28.40;;;2.40;99.90;;;;;;5056859;28;20160;-66
2021/01/15 08:58:06;;;;;;;42.67;27.77;;;2.40;99.90;;;;;;5056138;28;20425;-66
2021/01/15 09:00:34;;;;;;;39.13;28.20;;;2.40;99.90;;;;;;5062768;28;20453;-65
2021/01/15 09:03:04;;;;;;;38.60;27.43;;;2.40;99.90;;;;;;5062134;28;20441;-66
2021/01/15 09:05:32;;;;;;;38.10;27.30;;;2.50;99.90;;;;;;5057926;28;20426;-66
2021/01/15 09:08:02;;;;;;;38.93;28.57;;;2.50;99.90;;;;;;5055897;28;20435;-66
2021/01/15 09:10:28;;;;;;;45.33;30.43;;;2.50;99.90;;;;;;5057171;28;20419;-66
2021/01/15 09:13:00;;;;;;;39.00;29.80;;;2.50;99.90;;;;;;5058812;28;20473;-66
2021/01/15 09:15:27;;;;;;;43.17;30.10;;;2.50;99.90;;;;;;5056298;28;20484;-66
2021/01/15 09:17:53;;;;;;;41.77;28.60;;;2.50;99.90;;;;;;5058416;28;20436;-66
2021/01/15 09:20:19;;;;;;;45.13;30.87;;;2.50;99.90;;;;;;5058336;28;20468;-66
2021/01/15 09:22:45;;;;;;;47.27;30.00;;;2.60;99.90;;;;;;5056773;28;20999;-66
2021/01/15 09:25:16;;;;;;;50.43;34.50;;;2.60;99.90;;;;;;5056747;28;20204;-66
2021/01/15 09:27:42;;;;;;;47.90;32.60;;;2.60;99.90;;;;;;5059127;28;20517;-66
2021/01/15 09:30:10;;;;;;;43.93;33.30;;;2.50;99.90;;;;;;5057909;28;20442;-66
2021/01/15 09:32:36;;;;;;;51.17;33.13;;;2.50;99.90;;;;;;5055519;28;20473;-66
2021/01/15 09:35:01;;;;;;;44.27;32.40;;;2.40;99.90;;;;;;5056973;28;20797;-66
2021/01/15 09:37:27;;;;;;;47.80;31.30;;;2.40;99.90;;;;;;5055306;28;20283;-65
2021/01/15 09:39:52;;;;;;;47.47;32.93;;;2.40;99.90;;;;;;5059429;28;20661;-66
2021/01/15 09:42:18;;;;;;;42.80;31.53;;;2.40;99.90;;;;;;5060320;28;20176;-65
2021/01/15 09:44:43;;;;;;;44.07;29.73;;;2.40;99.90;;;;;;5055210;28;20184;-66
2021/01/15 09:47:09;;;;;;;46.17;31.57;;;2.40;99.90;;;;;;5059317;28;20206;-65
2021/01/15 09:49:35;;;;;;;40.20;30.03;;;2.40;99.90;;;;;;5052912;28;20192;-65
2021/01/15 09:52:05;;;;;;;41.57;30.20;;;2.40;99.90;;;;;;5056504;28;20210;-65
2021/01/15 09:54:31;;;;;;;33.70;26.63;;;2.40;99.90;;;;;;5055093;28;20291;-66
2021/01/15 09:56:57;;;;;;;37.97;26.70;;;2.40;99.90;;;;;;5056627;28;20425;-66
2021/01/15 09:59:23;;;;;;;39.43;29.20;;;2.40;99.90;;;;;;5071975;28;20431;-66
2021/01/15 10:01:49;;;;;;;37.30;27.20;;;2.40;99.90;;;;;;5060556;28;20505;-66
2021/01/15 10:04:15;;;;;;;35.73;26.83;;;2.50;99.90;;;;;;5053564;28;20662;-65
2021/01/15 10:06:43;;;;;;;35.17;25.40;;;2.60;99.90;;;;;;5056973;28;20629;-66
2021/01/15 10:09:09;;;;;;;30.50;24.60;;;2.60;99.90;;;;;;5054813;28;20496;-66
2021/01/15 10:11:40;;;;;;;35.33;26.50;;;2.70;99.90;;;;;;5055626;28;20453;-66
2021/01/15 10:14:10;;;;;;;32.00;24.77;;;2.80;99.90;;;;;;5053782;28;20498;-66
2021/01/15 10:16:40;;;;;;;30.97;24.47;;;2.90;99.90;;;;;;5060711;28;20948;-65
2021/01/15 10:19:06;;;;;;;32.30;23.03;;;3.10;99.90;;;;;;5055221;28;20430;-66
2021/01/15 10:21:32;;;;;;;30.87;22.60;;;3.20;99.90;;;;;;5052237;28;20450;-66
2021/01/15 10:23:59;;;;;;;24.83;21.33;;;3.40;99.90;;;;;;5061474;28;20180;-65
2021/01/15 10:26:26;;;;;;;25.60;21.13;;;3.50;99.90;;;;;;5058794;28;20429;-66
2021/01/15 10:28:56;;;;;;;23.70;19.30;;;3.60;99.90;;;;;;5054364;28;20456;-66
2021/01/15 10:31:26;;;;;;;28.77;19.63;;;3.60;99.90;;;;;;5051609;28;21070;-65
2021/01/15 10:33:52;;;;;;;25.77;18.80;;;3.60;99.90;;;;;;5065126;28;20465;-66
2021/01/15 10:36:17;;;;;;;21.80;17.70;;;3.60;99.90;;;;;;5057901;28;20427;-66
2021/01/15 10:38:43;;;;;;;24.77;19.53;;;3.60;99.90;;;;;;5053560;28;20530;-66
2021/01/15 10:41:09;;;;;;;20.53;17.90;;;3.60;99.90;;;;;;5057455;28;20181;-66
2021/01/15 10:43:34;;;;;;;22.83;17.33;;;3.60;99.90;;;;;;5054126;28;20183;-66
2021/01/15 10:46:00;;;;;;;22.53;18.23;;;3.60;99.90;;;;;;5054566;28;20437;-66
2021/01/15 10:48:25;;;;;;;20.20;15.67;;;3.60;99.90;;;;;;5055810;28;20657;-66
2021/01/15 10:50:51;;;;;;;22.27;17.40;;;3.60;99.90;;;;;;5054146;28;20203;-66
2021/01/15 10:53:16;;;;;;;23.33;17.87;;;3.60;99.90;;;;;;5056563;28;20202;-66
2021/01/15 10:55:42;;;;;;;19.77;16.43;;;3.60;99.90;;;;;;5051520;28;20602;-66
2021/01/15 10:58:07;;;;;;;21.33;18.43;;;3.60;99.90;;;;;;5058823;28;20185;-65
2021/01/15 11:00:35;;;;;;;20.50;15.93;;;3.60;99.90;;;;;;5058914;28;20195;-66
2021/01/15 11:03:00;;;;;;;20.70;16.67;;;3.60;99.90;;;;;;5054116;28;20263;-65
2021/01/15 11:05:26;;;;;;;20.67;16.23;;;3.60;99.90;;;;;;5067950;28;20554;-66
2021/01/15 11:07:51;;;;;;;23.53;17.30;;;3.60;99.90;;;;;;5054255;28;20360;-66
2021/01/15 11:10:17;;;;;;;22.03;16.50;;;3.60;99.90;;;;;;5052569;28;20641;-66
2021/01/15 11:12:42;;;;;;;19.67;16.63;;;3.60;99.90;;;;;;5055474;28;20200;-66
2021/01/15 11:15:09;;;;;;;17.00;15.20;;;3.60;99.90;;;;;;5053957;28;20648;-66
2021/01/15 11:17:39;;;;;;;22.07;16.33;;;3.60;99.90;;;;;;5061725;28;20175;-66
2021/01/15 11:20:06;;;;;;;16.60;13.73;;;3.60;99.90;;;;;;5053469;28;20435;-69
2021/01/15 11:22:31;;;;;;;19.03;13.33;;;3.70;99.90;;;;;;5060106;28;20571;-66
2021/01/15 11:24:57;;;;;;;17.00;13.40;;;3.70;99.90;;;;;;5054818;28;20505;-66
2021/01/15 11:27:23;;;;;;;17.07;13.17;;;3.70;99.90;;;;;;5057637;28;20666;-66
2021/01/15 11:29:48;;;;;;;17.07;14.47;;;3.80;99.90;;;;;;5058718;28;20199;-66
2021/01/15 11:32:17;;;;;;;19.13;14.23;;;3.80;99.90;;;;;;5056652;28;20232;-66
2021/01/15 11:34:44;;;;;;;17.03;13.27;;;3.80;99.90;;;;;;5050926;28;20212;-66
2021/01/15 11:37:09;;;;;;;18.00;13.87;;;3.80;99.90;;;;;;5057514;28;20457;-66
2021/01/15 11:39:35;;;;;;;17.00;14.10;;;3.80;99.90;;;;;;5052179;28;20462;-66
2021/01/15 11:42:00;;;;;;;17.07;11.90;;;3.90;99.90;;;;;;5054391;28;20226;-66
2021/01/15 11:44:25;;;;;;;20.77;12.77;;;3.90;99.90;;;;;;5051625;28;20549;-66
2021/01/15 11:46:51;;;;;;;18.80;16.57;;;3.90;99.90;;;;;;5053574;28;20226;-66
2021/01/15 11:49:16;;;;;;;13.20;11.80;;;3.90;99.90;;;;;;5052603;28;20541;-66
2021/01/15 11:51:42;;;;;;;19.23;13.00;;;3.90;99.90;;;;;;5053707;28;20188;-66
2021/01/15 11:54:12;;;;;;;15.30;12.40;;;3.90;99.90;;;;;;5052725;28;20241;-66
2021/01/15 11:56:41;;;;;;;14.70;10.60;;;3.90;99.90;;;;;;5051872;28;20218;-66
2021/01/15 11:59:08;;;;;;;15.50;11.57;;;3.90;99.90;;;;;;5052103;28;20438;-66
2021/01/15 12:01:33;;;;;;;17.10;11.57;;;3.90;99.90;;;;;;5060364;28;20433;-66
2021/01/15 12:03:59;;;;;;;14.33;11.20;;;4.00;99.90;;;;;;5058619;28;20825;-65
2021/01/15 12:06:24;;;;;;;38.13;13.93;;;4.00;99.90;;;;;;5057837;28;20188;-65
2021/01/15 12:08:50;;;;;;;11.50;10.20;;;3.90;99.90;;;;;;5058903;28;20256;-65
2021/01/15 12:11:15;;;;;;;13.13;10.50;;;3.90;99.90;;;;;;5058831;28;20541;-65
2021/01/15 12:13:41;;;;;;;13.53;10.50;;;3.90;99.90;;;;;;5057148;28;20272;-65
2021/01/15 12:16:06;;;;;;;13.93;11.27;;;3.90;99.90;;;;;;5055323;28;20279;-65
2021/01/15 12:18:32;;;;;;;16.73;12.67;;;3.90;99.90;;;;;;5059082;28;20185;-65
2021/01/15 12:20:57;;;;;;;12.70;10.80;;;4.00;99.90;;;;;;5059023;28;20180;-65
2021/01/15 12:23:24;;;;;;;13.90;11.73;;;4.00;99.90;;;;;;5056643;28;20188;-65
2021/01/15 12:25:49;;;;;;;14.60;11.37;;;3.90;99.90;;;;;;5055048;28;20230;-65
2021/01/15 12:28:16;;;;;;;15.40;10.70;;;3.90;99.90;;;;;;5059119;28;20803;-65
2021/01/15 12:30:46;;;;;;;16.70;12.70;;;3.90;99.90;;;;;;5059340;28;20224;-65
2021/01/15 12:33:16;;;;;;;17.50;13.30;;;3.90;99.90;;;;;;5053632;28;20462;-65
2021/01/15 12:35:43;;;;;;;13.70;11.20;;;3.90;99.90;;;;;;5057090;28;20429;-65
2021/01/15 12:38:11;;;;;;;14.30;11.70;;;3.90;99.90;;;;;;5061995;28;20938;-65
2021/01/15 12:40:37;;;;;;;14.93;10.90;;;3.90;99.90;;;;;;5055917;28;20470;-65
2021/01/15 12:43:04;;;;;;;14.50;11.70;;;3.90;99.90;;;;;;5059759;28;20942;-65
2021/01/15 12:45:33;;;;;;;16.13;12.73;;;3.90;99.90;;;;;;5055779;28;20997;-65
2021/01/15 12:47:59;;;;;;;15.53;11.70;;;3.90;99.90;;;;;;5056904;28;20438;-65